Time;durP1;ratioP1;P1;durP2;ratioP2;P2;SDS_P1;SDS_P2;PMS_P1;PMS_P2;Temp;Humidity;BMP_temperature;BMP_pressure;BME280_temperature;BME280_humidity;BME280_pressure;Samples;Min_cycle;Max_cycle;Signal;HPM_P1;HPM_P2
2022/11/06 00:02:09;;;;;;;27.90;11.07;;;;;;;8.81;100.00;99101.81;4339205;33;20513;-74
2022/11/06 00:04:36;;;;;;;25.92;10.85;;;;;;;9.09;100.00;99166.31;4336766;33;20105;-73
2022/11/06 00:07:02;;;;;;;28.33;12.15;;;;;;;9.13;100.00;99168.53;4317051;33;20717;-73
2022/11/06 00:09:29;;;;;;;39.97;11.95;;;;;;;9.14;100.00;99159.41;4324365;33;20504;-74
2022/11/06 00:11:56;;;;;;;28.42;10.55;;;;;;;9.14;100.00;99170.16;4323297;33;20062;-74
2022/11/06 00:14:23;;;;;;;32.40;11.60;;;;;;;9.07;100.00;99159.53;4315929;33;20053;-73
2022/11/06 00:16:49;;;;;;;29.92;11.93;;;;;;;9.03;100.00;99179.84;4323321;33;20060;-73
2022/11/06 00:19:16;;;;;;;25.52;11.82;;;;;;;9.11;100.00;99176.00;4320761;33;20384;-73
2022/11/06 00:21:42;;;;;;;27.17;11.23;;;;;;;9.06;100.00;99174.84;4324498;33;20426;-73
2022/11/06 00:24:12;;;;;;;35.45;12.13;;;;;;;8.85;100.00;99143.22;4323009;33;20115;-73
2022/11/06 00:26:39;;;;;;;33.03;13.75;;;;;;;8.83;100.00;99153.38;4308857;33;20364;-72
2022/11/06 00:29:06;;;;;;;21.98;10.65;;;;;;;9.05;100.00;99178.56;4309650;33;20044;-73
2022/11/06 00:31:39;;;;;;;22.73;9.77;;;;;;;8.73;100.00;99149.41;4321014;33;20074;-73
2022/11/06 00:34:06;;;;;;;27.40;10.68;;;;;;;8.97;100.00;99184.31;4323811;33;20057;-74
2022/11/06 00:36:32;;;;;;;35.30;12.85;;;;;;;8.91;100.00;99193.31;4322816;33;20016;-73
2022/11/06 00:38:59;;;;;;;20.20;9.55;;;;;;;8.66;100.00;99158.62;4324211;33;20061;-73
2022/11/06 00:41:26;;;;;;;31.50;9.80;;;;;;;8.69;100.00;99185.81;4324573;33;20059;-73
2022/11/06 00:43:58;;;;;;;22.95;10.32;;;;;;;8.66;100.00;99191.69;4328985;33;20078;-73
2022/11/06 00:46:25;;;;;;;24.67;10.00;;;;;;;8.71;100.00;99194.47;4326819;33;20327;-74
2022/11/06 00:48:53;;;;;;;26.45;10.50;;;;;;;8.24;100.00;99135.38;4343966;32;20060;-72
2022/11/06 00:51:22;;;;;;;29.27;10.45;;;;;;;8.59;100.00;99196.34;4346326;32;20074;-72
2022/11/06 00:53:53;;;;;;;23.42;9.25;;;;;;;8.59;100.00;99206.25;4343859;32;20056;-73
2022/11/06 00:56:20;;;;;;;25.23;10.35;;;;;;;8.57;100.00;99209.19;4309175;33;20058;-73
2022/11/06 00:58:48;;;;;;;30.70;11.70;;;;;;;8.25;100.00;99174.56;4307888;33;20083;-72
2022/11/06 01:01:26;;;;;;;24.60;10.38;;;;;;;8.20;100.00;99161.03;4307109;33;20090;-72
2022/11/06 01:03:59;;;;;;;29.08;10.40;;;;;;;8.47;100.00;99209.75;4320151;33;20168;-74
2022/11/06 01:06:27;;;;;;;;;;;;;;;8.19;100.00;99170.13;4316801;33;20114;-74
2022/11/06 01:08:54;;;;;;;31.80;11.15;;;;;;;8.45;100.00;99205.66;4317980;33;19952;-73
2022/11/06 01:11:27;;;;;;;30.25;10.52;;;;;;;8.37;100.00;99193.34;4317948;33;20110;-73
2022/11/06 01:13:56;;;;;;;29.92;11.00;;;;;;;8.37;100.00;99194.16;4316490;33;20071;-73
2022/11/06 01:16:23;;;;;;;30.37;11.55;;;;;;;8.41;100.00;99204.44;4285756;33;20110;-72
2022/11/06 01:18:51;;;;;;;29.08;10.38;;;;;;;8.33;100.00;99209.09;4270608;33;20065;-73
2022/11/06 01:21:23;;;;;;;25.45;9.73;;;;;;;8.37;100.00;99199.53;4271525;33;20354;-72
2022/11/06 01:23:57;;;;;;;;;;;;;;;8.38;100.00;99200.37;4265347;33;20058;-73
2022/11/06 01:26:24;;;;;;;27.77;8.73;;;;;;;8.36;100.00;99203.28;4266454;33;19947;-73
2022/11/06 01:28:51;;;;;;;26.52;9.07;;;;;;;8.28;100.00;99205.47;4285733;33;20069;-73
2022/11/06 01:31:20;;;;;;;30.35;10.02;;;;;;;8.32;100.00;99218.19;4293501;33;20049;-73
2022/11/06 01:33:47;;;;;;;25.02;9.95;;;;;;;8.25;100.00;99206.75;4295229;33;20461;-73
2022/11/06 01:36:16;;;;;;;27.40;9.95;;;;;;;8.18;100.00;99217.59;4292382;33;20094;-73
2022/11/06 01:38:45;;;;;;;30.77;10.82;;;;;;;8.24;100.00;99221.22;4294211;33;20053;-73
2022/11/06 01:41:18;;;;;;;30.98;10.15;;;;;;;8.11;100.00;99175.84;4294218;33;20037;-73
2022/11/06 01:44:12;;;;;;;26.27;8.98;;;;;;;8.15;100.00;99220.75;4292416;33;20850;-73
2022/11/06 01:46:38;;;;;;;17.48;8.05;;;;;;;8.08;100.00;99219.19;4268217;33;20021;-73
2022/11/06 01:49:07;;;;;;;30.33;8.55;;;;;;;7.91;100.00;99217.13;4328339;33;20051;-72
2022/11/06 01:51:39;;;;;;;29.40;8.95;;;;;;;7.84;100.00;99178.91;4353813;32;20070;-73
2022/11/06 01:54:07;;;;;;;24.02;8.57;;;;;;;8.01;100.00;99227.34;4354583;32;20056;-73
2022/11/06 01:56:36;;;;;;;20.33;9.13;;;;;;;7.58;100.00;99194.28;4338559;33;20486;-76
2022/11/06 01:59:05;;;;;;;24.15;9.07;;;;;;;7.98;100.00;99223.25;4336772;33;20105;-72
2022/11/06 02:01:32;;;;;;;29.58;10.82;;;;;;;8.02;100.00;99218.22;4334895;33;20164;-74
2022/11/06 02:04:19;;;;;;;30.52;9.40;;;;;;;7.92;100.00;99228.69;4336677;33;20060;-73
2022/11/06 02:06:46;;;;;;;27.87;9.80;;;;;;;8.06;100.00;99229.31;4337242;33;20035;-72
2022/11/06 02:09:14;;;;;;;25.85;9.68;;;;;;;7.70;100.00;99188.16;4336520;33;20111;-71
2022/11/06 02:11:55;;;;;;;24.77;9.23;;;;;;;7.73;100.00;99182.34;4328034;33;20718;-73
2022/11/06 02:14:39;;;;;;;27.70;9.20;;;;;;;7.90;100.00;99220.06;4321587;33;20795;-73
2022/11/06 02:17:30;;;;;;;30.25;9.88;;;;;;;7.88;100.00;99227.50;4321531;33;20036;-73
2022/11/06 02:20:11;;;;;;;24.98;8.75;;;;;;;7.64;100.00;99190.72;4323357;33;20084;-73
2022/11/06 02:23:26;;;;;;;31.23;10.95;;;;;;;7.96;100.00;99230.69;4321508;33;20068;-75
2022/11/06 02:26:17;;;;;;;20.10;9.77;;;;;;;8.01;100.00;99224.66;4320796;33;20085;-77
2022/11/06 02:28:54;;;;;;;21.67;9.95;;;;;;;7.93;100.00;99231.16;4338989;33;20069;-76
2022/11/06 02:31:29;;;;;;;18.80;9.70;;;;;;;7.70;100.00;99188.16;4338595;33;20037;-75
2022/11/06 02:34:01;;;;;;;30.05;10.40;;;;;;;7.89;100.00;99223.78;4366153;32;20069;-77
2022/11/06 02:36:33;;;;;;;24.10;10.93;;;;;;;7.65;100.00;99186.16;4343971;32;20044;-77
2022/11/06 02:39:04;;;;;;;32.70;9.48;;;;;;;7.76;100.00;99227.47;4346850;32;20073;-76
2022/11/06 02:41:36;;;;;;;29.50;10.03;;;;;;;7.74;100.00;99232.25;4364246;32;20084;-77
2022/11/06 02:44:08;;;;;;;27.33;11.85;;;;;;;7.71;100.00;99233.50;4367400;32;20077;-77
2022/11/06 02:46:45;;;;;;;;;;;;;;;7.39;100.00;99203.41;4366665;32;20438;-77
2022/11/06 02:49:16;;;;;;;26.87;9.40;;;;;;;7.67;100.00;99242.22;4367046;32;19984;-76
2022/11/06 02:51:49;;;;;;;31.00;10.45;;;;;;;7.64;100.00;99244.31;4366247;32;20811;-75
2022/11/06 02:54:20;;;;;;;26.17;10.45;;;;;;;7.67;100.00;99242.22;4360021;32;20069;-77
2022/11/06 02:56:51;;;;;;;28.10;12.60;;;;;;;7.59;100.00;99236.09;4358277;32;20476;-74
2022/11/06 02:59:23;;;;;;;24.00;10.80;;;;;;;7.25;100.00;99200.87;4329712;33;20091;-74
2022/11/06 03:02:12;;;;;;;22.27;12.15;;;;;;;7.44;100.00;99243.72;4333969;33;20113;-73
2022/11/06 03:04:54;;;;;;;27.17;10.45;;;;;;;7.19;100.00;99193.72;4334713;33;20036;-73
2022/11/06 03:07:30;;;;;;;25.70;9.90;;;;;;;7.17;100.00;99190.47;4299724;33;20428;-73
2022/11/06 03:09:56;;;;;;;29.77;10.85;;;;;;;7.50;100.00;99242.00;4300043;33;20036;-73
2022/11/06 03:12:33;;;;;;;27.90;9.57;;;;;;;7.40;100.00;99239.84;4292115;33;20371;-73
2022/11/06 03:15:10;;;;;;;29.12;11.50;;;;;;;7.14;100.00;99206.97;4279993;33;20063;-72
2022/11/06 03:17:50;;;;;;;27.65;10.57;;;;;;;7.37;100.00;99242.97;4282467;33;20122;-73
2022/11/06 03:20:27;;;;;;;32.75;11.43;;;;;;;6.82;100.00;99184.87;4293660;33;20091;-73
2022/11/06 03:23:01;;;;;;;23.48;9.45;;;;;;;7.19;100.00;99249.16;4295413;33;20048;-73
2022/11/06 03:25:57;;;;;;;22.65;9.50;;;;;;;7.12;100.00;99246.53;4296612;33;20115;-73
2022/11/06 03:28:31;;;;;;;25.98;10.75;;;;;;;7.17;100.00;99249.38;4296615;33;20054;-73
2022/11/06 03:31:02;;;;;;;27.70;10.57;;;;;;;7.12;100.00;99257.25;4305504;33;20068;-73
2022/11/06 03:33:35;;;;;;;25.67;10.48;;;;;;;6.94;100.00;99211.72;4310188;33;20466;-72
2022/11/06 03:36:04;;;;;;;;;;;;;;;7.23;100.00;99253.03;4304073;33;20218;-73
2022/11/06 03:38:39;;;;;;;25.83;8.90;;;;;;;7.22;100.00;99252.19;4311804;33;20386;-73
2022/11/06 03:41:30;;;;;;;23.65;10.00;;;;;;;7.14;100.00;99255.16;4311002;33;20021;-73
2022/11/06 03:44:00;;;;;;;29.45;11.43;;;;;;;6.87;100.00;99219.81;4340276;32;20060;-73
2022/11/06 03:46:29;;;;;;;22.77;9.40;;;;;;;7.15;100.00;99266.69;4352007;32;20040;-73
2022/11/06 03:49:01;;;;;;;21.37;9.95;;;;;;;6.81;100.00;99221.53;4327267;33;20054;-73
2022/11/06 03:51:32;;;;;;;32.90;10.15;;;;;;;7.08;100.00;99264.09;4344303;32;20476;-73
2022/11/06 03:54:04;;;;;;;27.30;10.40;;;;;;;7.06;100.00;99263.50;4350639;32;20036;-74
2022/11/06 03:56:39;;;;;;;23.20;9.75;;;;;;;7.08;100.00;99262.25;4340085;33;20046;-73
2022/11/06 03:59:08;;;;;;;27.50;10.55;;;;;;;6.80;100.00;99227.91;4339048;33;20082;-74
2022/11/06 04:01:41;;;;;;;19.60;11.00;;;;;;;7.05;100.00;99267.19;4338317;33;20047;-73
2022/11/06 04:04:17;;;;;;;30.80;10.00;;;;;;;7.05;100.00;99267.19;4339965;33;20062;-74
2022/11/06 04:06:55;;;;;;;28.60;11.12;;;;;;;6.50;100.00;99196.47;4338215;33;20058;-73
2022/11/06 04:15:02;;;;;;;24.75;10.38;;;;;;;6.96;100.00;99273.91;4338832;32;20137;-72
2022/11/06 04:17:28;;;;;;;27.33;9.18;;;;;;;6.96;100.00;99268.53;4339701;33;20503;-72
2022/11/06 04:20:02;;;;;;;20.65;9.68;;;;;;;6.75;100.00;99230.44;4347376;32;20028;-73
2022/11/06 04:22:55;;;;;;;20.35;9.50;;;;;;;6.79;100.00;99230.81;4355544;32;20505;-73
2022/11/06 04:28:18;;;;;;;28.90;8.63;;;;;;;6.70;100.00;99265.03;4365694;32;19974;-73
2022/11/06 04:31:38;;;;;;;20.98;9.75;;;;;;;6.63;100.00;99262.41;4367238;32;20051;-73
2022/11/06 04:34:24;;;;;;;23.05;10.05;;;;;;;6.64;100.00;99265.94;4320195;33;20045;-73
2022/11/06 04:37:09;;;;;;;22.60;10.27;;;;;;;6.51;100.00;99246.25;4363090;32;20051;-73
2022/11/06 04:40:00;;;;;;;24.10;8.38;;;;;;;6.61;100.00;99256.47;4361957;32;20069;-73
2022/11/06 04:42:38;;;;;;;18.77;9.20;;;;;;;6.42;100.00;99247.56;4352877;32;20373;-73
2022/11/06 04:45:17;;;;;;;59.63;10.88;;;;;;;6.27;100.00;99255.06;4356646;32;20056;-73
2022/11/06 04:47:45;;;;;;;30.65;11.75;;;;;;;6.04;100.00;99240.41;4365226;32;20226;-72
2022/11/06 04:50:14;;;;;;;59.95;11.90;;;;;;;6.18;100.00;99252.66;4366800;32;20043;-73
2022/11/06 04:52:42;;;;;;;157.37;12.68;;;;;;;6.09;100.00;99243.25;4369442;32;20102;-73
2022/11/06 04:55:08;;;;;;;42.33;11.65;;;;;;;5.96;100.00;99254.00;4357238;32;20058;-73
2022/11/06 04:57:35;;;;;;;63.87;10.85;;;;;;;5.72;100.00;99220.81;4351092;32;20055;-73
2022/11/06 05:00:03;;;;;;;91.03;11.77;;;;;;;5.72;100.00;99216.28;4339223;32;20069;-73
2022/11/06 05:02:30;;;;;;;158.73;11.32;;;;;;;5.67;100.00;99212.62;4342868;32;20051;-73
2022/11/06 05:04:56;;;;;;;68.85;10.52;;;;;;;5.41;100.00;99247.25;4349186;32;20557;-74
2022/11/06 05:07:23;;;;;;;98.70;9.95;;;;;;;5.62;100.00;99248.00;4349146;32;20044;-74
2022/11/06 05:09:49;;;;;;;19.17;9.05;;;;;;;5.46;100.00;99234.06;4342045;32;20102;-74
2022/11/06 05:12:16;;;;;;;92.03;10.25;;;;;;;5.64;100.00;99243.25;4340966;32;20060;-74
2022/11/06 05:14:42;;;;;;;26.70;10.98;;;;;;;5.41;100.00;99204.53;4344274;32;20448;-73
2022/11/06 05:17:08;;;;;;;26.67;9.82;;;;;;;5.63;100.00;99252.28;4350651;32;20056;-74
2022/11/06 05:19:35;;;;;;;22.70;10.25;;;;;;;5.50;100.00;99244.34;4350143;32;20109;-73
2022/11/06 05:24:47;;;;;;;27.20;11.52;;;;;;;5.11;100.00;99198.06;4352818;32;20051;-73
2022/11/06 05:27:13;;;;;;;50.60;12.20;;;;;;;5.38;100.00;99252.19;4350405;32;20391;-73
2022/11/06 05:29:40;;;;;;;31.15;10.88;;;;;;;5.02;100.00;99214.28;4342304;32;20363;-74
2022/11/06 05:32:06;;;;;;;26.27;10.90;;;;;;;5.05;100.00;99229.88;4351798;32;20809;-74
2022/11/06 05:34:33;;;;;;;47.15;9.68;;;;;;;4.99;100.00;99228.03;4355831;32;20448;-73
2022/11/06 05:36:59;;;;;;;33.38;10.98;;;;;;;5.17;100.00;99272.78;4355746;32;20057;-73
2022/11/06 05:39:26;;;;;;;35.50;10.40;;;;;;;5.00;100.00;99220.88;4349698;32;20040;-74
2022/11/06 05:41:52;;;;;;;26.25;10.27;;;;;;;4.97;100.00;99219.44;4353597;32;20047;-74
2022/11/06 05:44:19;;;;;;;21.48;10.32;;;;;;;5.07;100.00;99246.53;4354987;32;20032;-73
2022/11/06 05:46:45;;;;;;;23.35;10.05;;;;;;;5.08;100.00;99253.47;4352008;32;20052;-73
2022/11/06 05:49:12;;;;;;;25.40;11.25;;;;;;;4.86;100.00;99222.72;4352748;32;20421;-73
2022/11/06 05:51:38;;;;;;;23.45;11.95;;;;;;;5.13;100.00;99262.72;4342590;32;20090;-73
2022/11/06 05:54:05;;;;;;;25.23;11.63;;;;;;;5.15;100.00;99264.13;4351650;32;20077;-74
2022/11/06 05:56:31;;;;;;;28.50;10.32;;;;;;;4.86;100.00;99223.53;4346595;32;20052;-73
2022/11/06 05:58:57;;;;;;;16.37;9.63;;;;;;;4.88;100.00;99240.19;4343504;32;20091;-74
2022/11/06 06:01:24;;;;;;;27.23;10.98;;;;;;;4.93;100.00;99239.56;4334735;33;20057;-73
2022/11/06 06:03:51;;;;;;;26.33;11.32;;;;;;;4.91;100.00;99231.78;4321422;33;20049;-73
2022/11/06 06:06:19;;;;;;;26.25;10.48;;;;;;;4.85;100.00;99232.59;4308620;33;20099;-74
2022/11/06 06:08:45;;;;;;;27.85;11.35;;;;;;;5.16;100.00;99270.31;4293307;33;20075;-74
2022/11/06 06:11:12;;;;;;;25.42;12.27;;;;;;;5.12;100.00;99274.41;4294171;33;20071;-72
2022/11/06 06:13:38;;;;;;;22.55;11.07;;;;;;;4.87;100.00;99243.06;4291124;33;20048;-73
2022/11/06 06:16:05;;;;;;;22.92;11.57;;;;;;;4.76;100.00;99227.69;4307030;33;20057;-73
2022/11/06 06:18:32;;;;;;;27.15;11.98;;;;;;;4.69;100.00;99228.50;4298468;33;20569;-72
2022/11/06 06:20:59;;;;;;;31.55;12.60;;;;;;;4.98;100.00;99279.78;4308445;33;20028;-73
2022/11/06 06:23:25;;;;;;;30.62;11.80;;;;;;;5.01;100.00;99276.72;4308497;33;20444;-73
2022/11/06 06:25:52;;;;;;;28.10;12.63;;;;;;;4.95;100.00;99269.53;4306299;33;20083;-73
2022/11/06 06:28:18;;;;;;;21.75;11.10;;;;;;;5.06;100.00;99282.22;4307581;33;20399;-73
2022/11/06 06:30:45;;;;;;;26.52;11.15;;;;;;;4.86;100.00;99244.06;4292015;33;20091;-73
2022/11/06 06:33:11;;;;;;;133.48;19.37;;;;;;;4.98;100.00;99263.78;4294196;33;20191;-74
2022/11/06 06:35:38;;;;;;;99.05;22.83;;;;;;;5.27;100.00;99299.03;4293036;33;20106;-74
2022/11/06 06:38:04;;;;;;;171.93;21.65;;;;;;;5.14;100.00;99259.00;4281605;33;20510;-73
2022/11/06 06:40:31;;;;;;;181.35;17.67;;;;;;;5.43;100.00;99308.47;4282141;33;20041;-73
2022/11/06 06:42:58;;;;;;;91.87;17.33;;;;;;;5.38;100.00;99306.41;4278757;33;20073;-73
2022/11/06 06:45:25;;;;;;;151.90;17.45;;;;;;;5.55;100.00;99321.97;4276320;33;20093;-73
2022/11/06 06:47:52;;;;;;;113.90;14.00;;;;;;;5.14;100.00;99267.00;4278327;33;20055;-73
2022/11/06 06:50:19;;;;;;;125.22;14.43;;;;;;;5.05;100.00;99312.63;4278048;33;20390;-74
2022/11/06 06:52:46;;;;;;;129.25;16.35;;;;;;;5.15;100.00;99300.69;4278294;33;20523;-74
2022/11/06 06:55:13;;;;;;;109.53;15.13;;;;;;;5.44;100.00;99332.28;4279222;33;20064;-74
2022/11/06 06:57:39;;;;;;;108.20;16.75;;;;;;;5.59;100.00;99344.59;4278566;33;20087;-74
2022/11/06 07:00:06;;;;;;;187.98;19.35;;;;;;;5.53;100.00;99302.69;4284413;33;20037;-74
2022/11/06 07:02:33;;;;;;;169.20;18.12;;;;;;;5.57;100.00;99299.37;4315741;33;20076;-74
2022/11/06 07:04:59;;;;;;;214.12;17.80;;;;;;;5.93;100.00;99345.28;4322097;33;20054;-74
2022/11/06 07:07:25;;;;;;;181.85;25.27;;;;;;;6.01;100.00;99337.06;4322340;33;20378;-73
2022/11/06 07:09:52;;;;;;;97.97;17.48;;;;;;;5.72;100.00;99288.44;4320559;33;20209;-74
2022/11/06 07:12:18;;;;;;;129.75;17.90;;;;;;;5.41;100.00;99263.28;4323056;33;20592;-74
2022/11/06 07:14:45;;;;;;;94.35;16.73;;;;;;;5.50;100.00;99284.41;4333524;33;20054;-74
2022/11/06 07:17:11;;;;;;;132.98;18.23;;;;;;;5.50;100.00;99287.88;4336704;33;20052;-73
2022/11/06 07:19:38;;;;;;;125.25;17.67;;;;;;;5.64;100.00;99326.06;4336847;33;20104;-74
2022/11/06 07:22:04;;;;;;;153.82;20.05;;;;;;;5.81;100.00;99332.59;4333964;33;20036;-73
2022/11/06 07:24:31;;;;;;;91.65;17.73;;;;;;;5.91;100.00;99326.78;4337499;33;20118;-73
2022/11/06 07:26:57;;;;;;;100.80;18.42;;;;;;;5.99;100.00;99301.72;4335981;33;20033;-73
2022/11/06 07:29:24;;;;;;;55.90;17.12;;;;;;;6.13;100.00;99281.91;4325199;33;20204;-73
2022/11/06 07:31:50;;;;;;;56.37;17.17;;;;;;;6.56;100.00;99328.56;4329148;33;20066;-73
2022/11/06 07:34:17;;;;;;;61.72;17.12;;;;;;;6.65;100.00;99332.59;4337142;33;20450;-74
2022/11/06 07:36:43;;;;;;;45.08;18.35;;;;;;;6.09;100.00;99291.38;4341146;33;20181;-73
2022/11/06 07:39:10;;;;;;;37.47;17.08;;;;;;;6.53;100.00;99335.12;4339733;33;20043;-77
2022/11/06 07:41:36;;;;;;;46.88;19.08;;;;;;;6.50;100.00;99292.75;4342949;33;20024;-77
2022/11/06 07:44:03;;;;;;;38.85;19.90;;;;;;;6.62;100.00;99294.75;4344416;32;20056;-77
2022/11/06 07:46:29;;;;;;;43.53;19.17;;;;;;;6.89;100.00;99322.94;4343834;33;20036;-77
2022/11/06 07:48:56;;;;;;;49.45;19.85;;;;;;;7.02;100.00;99326.53;4342252;33;20067;-78
2022/11/06 07:51:22;;;;;;;44.70;18.55;;;;;;;6.91;100.00;99294.09;4345753;32;20446;-77
2022/11/06 07:53:49;;;;;;;43.35;20.10;;;;;;;7.22;100.00;99319.16;4344876;33;20032;-78
2022/11/06 07:56:15;;;;;;;46.05;20.52;;;;;;;6.91;100.00;99255.81;4344914;33;20062;-78
2022/11/06 07:58:42;;;;;;;49.17;19.83;;;;;;;7.50;100.00;99325.06;4348522;32;20044;-77
2022/11/06 08:01:15;;;;;;;50.20;20.75;;;;;;;7.21;100.00;99273.84;4352062;32;20700;-77
2022/11/06 08:03:42;;;;;;;51.20;21.33;;;;;;;7.36;100.00;99285.03;4356285;32;20052;-77
2022/11/06 08:06:08;;;;;;;52.88;21.98;;;;;;;7.68;100.00;99325.06;4356463;32;20442;-75
2022/11/06 08:08:35;;;;;;;35.92;19.12;;;;;;;7.91;100.00;99335.09;4349129;32;20040;-74
2022/11/06 08:11:07;;;;;;;46.63;21.33;;;;;;;8.00;100.00;99331.09;4355712;32;20107;-75
2022/11/06 08:13:34;;;;;;;42.50;20.17;;;;;;;7.88;100.00;99290.00;4354368;32;20494;-75
2022/11/06 08:16:08;;;;;;;36.00;17.77;;;;;;;7.80;100.00;99292.97;4353291;32;20024;-77
2022/11/06 08:18:35;;;;;;;41.47;19.02;;;;;;;8.25;100.00;99319.44;4325321;33;20070;-77
2022/11/06 08:21:03;;;;;;;41.50;18.87;;;;;;;7.79;100.00;99243.09;4324670;33;20060;-76
2022/11/06 08:23:30;;;;;;;32.08;15.35;;;;;;;8.35;100.00;99308.97;4325454;33;20475;-77
2022/11/06 08:26:00;;;;;;;32.03;15.52;;;;;;;8.40;100.00;99294.06;4325732;33;20040;-77
2022/11/06 08:28:27;;;;;;;32.50;15.25;;;;;;;8.72;100.00;99334.88;4323608;33;20514;-77
2022/11/06 08:31:04;;;;;;;41.03;17.87;;;;;;;8.86;100.00;99339.00;4321016;33;20058;-77
2022/11/06 08:33:33;;;;;;;34.10;15.38;;;;;;;8.67;100.00;99294.50;4323581;33;20097;-78
2022/11/06 08:36:01;;;;;;;31.05;16.35;;;;;;;8.95;100.00;99333.28;4320571;33;20407;-74
2022/11/06 08:38:28;;;;;;;34.78;16.77;;;;;;;8.76;100.00;99287.75;4324444;33;20419;-78
2022/11/06 08:40:54;;;;;;;37.28;18.75;;;;;;;8.68;100.00;99286.22;4315707;33;20070;-77
2022/11/06 08:43:25;;;;;;;32.65;16.02;;;;;;;8.94;100.00;99316.38;4282175;33;20355;-78
2022/11/06 08:45:51;;;;;;;32.17;18.17;;;;;;;9.11;100.00;99331.78;4281301;33;20443;-77
2022/11/06 08:48:18;;;;;;;34.05;16.77;;;;;;;8.69;100.00;99293.19;4279687;33;20085;-76
2022/11/06 08:50:44;;;;;;;38.13;14.98;;;;;;;9.12;100.00;99334.25;4322330;33;20072;-77
2022/11/06 08:53:11;;;;;;;37.75;16.00;;;;;;;8.88;100.00;99296.62;4339245;33;20062;-77
2022/11/06 08:55:38;;;;;;;34.90;15.85;;;;;;;8.93;100.00;99309.34;4339441;33;20058;-76
2022/11/06 08:58:05;;;;;;;36.83;15.95;;;;;;;8.71;100.00;99291.13;4338431;33;20062;-76
2022/11/06 09:00:32;;;;;;;34.85;15.70;;;;;;;8.87;100.00;99327.22;4335720;33;20040;-75
2022/11/06 09:03:12;;;;;;;38.70;16.90;;;;;;;8.83;100.00;99293.00;4330691;33;20094;-76
2022/11/06 09:05:45;;;;;;;36.45;17.25;;;;;;;9.30;100.00;99333.31;4338536;33;20058;-78
2022/11/06 09:08:13;;;;;;;40.30;16.70;;;;;;;9.06;100.00;99330.63;4335700;33;20044;-77
2022/11/06 09:10:41;;;;;;;50.55;16.77;;;;;;;9.09;100.00;99319.44;4337014;32;20048;-76
2022/11/06 09:13:08;;;;;;;40.12;16.40;;;;;;;8.94;100.00;99300.25;4351225;32;20043;-77
2022/11/06 09:15:35;;;;;;;41.50;17.52;;;;;;;8.80;100.00;99309.56;4352967;32;20035;-77
2022/11/06 09:18:02;;;;;;;40.67;15.68;;;;;;;8.93;100.00;99319.28;4350076;32;20043;-75
2022/11/06 09:20:29;;;;;;;40.33;16.50;;;;;;;8.95;100.00;99327.91;4353371;32;20589;-77
2022/11/06 09:23:01;;;;;;;39.90;16.37;;;;;;;8.85;100.00;99298.94;4352744;32;20097;-77
2022/11/06 09:25:28;;;;;;;35.17;15.50;;;;;;;8.99;100.00;99291.50;4353632;32;20040;-77
2022/11/06 09:27:55;;;;;;;24.95;11.12;;;;;;;9.34;100.00;99337.19;4322693;33;20078;-77
2022/11/06 09:30:23;;;;;;;25.67;12.15;;;;;;;9.04;100.00;99297.78;4322240;33;20025;-81
2022/11/06 09:32:52;;;;;;;24.23;12.10;;;;;;;9.23;100.00;99338.00;4324040;33;20076;-77
2022/11/06 09:35:20;;;;;;;39.58;13.80;;;;;;;9.38;100.00;99332.97;4323005;33;20079;-76
2022/11/06 09:37:48;;;;;;;21.00;9.43;;;;;;;9.40;100.00;99313.94;4324014;33;20036;-76
2022/11/06 09:40:19;;;;;;;22.95;9.80;;;;;;;9.59;100.00;99341.50;4321045;33;20028;-75
2022/11/06 09:43:07;;;;;;;16.05;7.22;;;;;;;9.50;100.00;99340.22;4323803;33;20455;-77
2022/11/06 09:45:38;;;;;;;16.90;5.90;;;;;;;9.61;100.00;99342.06;4322885;33;20155;-77
2022/11/06 09:48:19;;;;;;;18.48;5.65;;;;;;;9.50;100.00;99341.03;4323963;33;20512;-77
2022/11/06 09:50:57;;;;;;;11.63;6.60;;;;;;;9.38;100.00;99332.97;4325391;33;20044;-76
2022/11/06 09:53:32;;;;;;;15.18;6.00;;;;;;;9.66;100.00;99328.72;4320024;33;20078;-77
2022/11/06 09:56:01;;;;;;;12.18;5.22;;;;;;;9.73;100.00;99334.81;4322181;33;20051;-77
2022/11/06 09:58:34;;;;;;;15.25;5.12;;;;;;;9.68;100.00;99294.34;4327012;33;20048;-77
2022/11/06 10:01:10;;;;;;;14.20;5.97;;;;;;;10.23;100.00;99333.38;4344284;32;20084;-77
2022/11/06 10:03:48;;;;;;;14.35;6.78;;;;;;;10.20;100.00;99322.28;4337178;33;20203;-75
2022/11/06 10:06:21;;;;;;;17.12;5.78;;;;;;;9.91;100.00;99287.31;4335260;33;20070;-77
2022/11/06 10:08:50;;;;;;;13.02;5.85;;;;;;;10.36;100.00;99321.53;4337041;33;20087;-77
2022/11/06 10:11:16;;;;;;;18.12;5.70;;;;;;;9.80;100.00;99275.53;4339057;33;20040;-77
2022/11/06 10:13:53;;;;;;;11.00;4.47;;;;;;;10.18;100.00;99325.22;4337425;33;20040;-77
2022/11/06 10:16:25;;;;;;;8.73;4.25;;;;;;;10.23;100.00;99322.63;4337558;33;20036;-76
2022/11/06 10:19:15;;;;;;;15.95;5.45;;;;;;;10.28;100.00;99286.91;4338833;33;20060;-76
2022/11/06 10:21:47;;;;;;;15.80;4.72;;;;;;;10.40;100.00;99317.28;4339016;33;20054;-76
2022/11/06 10:24:20;;;;;;;;;;;;;;;10.43;100.00;99316.81;4338186;33;20507;-75
2022/11/06 10:26:55;;;;;;;19.02;5.12;;;;;;;9.93;100.00;99318.28;4338924;33;19947;-77
2022/11/06 10:30:01;;;;;;;12.43;3.75;;;;;;;9.86;100.00;99276.41;4337178;33;20185;-77
2022/11/06 10:33:03;;;;;;;7.97;4.10;;;;;;;10.16;100.00;99289.66;4338717;33;20040;-78
2022/11/06 10:35:32;;;;;;;9.05;3.87;;;;;;;10.47;100.00;99312.59;4304941;33;20134;-78
2022/11/06 10:38:17;;;;;;;7.03;4.22;;;;;;;10.44;100.00;99307.69;4309478;33;20109;-76
2022/11/06 10:40:50;;;;;;;15.82;5.12;;;;;;;10.18;100.00;99272.22;4307658;33;20049;-75
2022/11/06 10:43:32;;;;;;;9.52;4.12;;;;;;;10.48;100.00;99303.47;4309082;33;20049;-76
2022/11/06 10:46:39;;;;;;;13.52;4.35;;;;;;;10.47;100.00;99280.28;4307792;33;20216;-76
2022/11/06 10:49:24;;;;;;;16.25;4.30;;;;;;;10.29;100.00;99299.28;4294469;33;20067;-76
2022/11/06 10:52:11;;;;;;;9.77;4.28;;;;;;;10.40;100.00;99246.50;4292942;33;20102;-76
2022/11/06 10:54:59;;;;;;;12.95;4.60;;;;;;;10.64;100.00;99296.47;4294264;33;20073;-76
2022/11/06 10:57:35;;;;;;;11.57;5.03;;;;;;;11.34;100.00;99293.47;4292675;33;20041;-77
2022/11/06 11:00:03;;;;;;;12.55;4.40;;;;;;;12.14;100.00;99292.09;4293920;33;20053;-77
2022/11/06 11:02:34;;;;;;;21.42;4.75;;;;;;;12.66;100.00;99293.41;4294562;33;20406;-77
2022/11/06 11:05:00;;;;;;;8.80;3.28;;;;;;;12.41;100.00;99295.88;4293883;33;20058;-76
2022/11/06 11:07:31;;;;;;;10.18;5.00;;;;;;;12.39;100.00;99292.59;4293814;33;20057;-77
2022/11/06 11:09:57;;;;;;;17.25;4.97;;;;;;;12.94;100.00;99253.63;4323044;33;20372;-76
2022/11/06 11:12:29;;;;;;;10.25;3.53;;;;;;;12.55;100.00;99256.56;4336826;33;20028;-77
2022/11/06 11:15:18;;;;;;;12.30;4.18;;;;;;;13.50;100.00;99295.62;4336562;33;20397;-76
2022/11/06 11:18:10;;;;;;;11.88;4.12;;;;;;;13.09;100.00;99302.38;4324002;33;20037;-77
2022/11/06 11:20:39;;;;;;;10.95;4.68;;;;;;;13.06;100.00;99291.28;4317183;33;20082;-75
2022/11/06 11:23:12;;;;;;;10.07;4.50;;;;;;;12.93;100.00;99237.69;4308340;33;20056;-77
2022/11/06 11:25:40;;;;;;;12.55;4.40;;;;;;;12.48;100.00;99253.28;4309146;33;20117;-77
2022/11/06 11:28:20;;;;;;;9.95;4.97;;;;;;;13.11;100.00;99279.69;4309173;33;20458;-77
2022/11/06 11:30:52;;;;;;;18.50;7.97;;;;;;;13.93;100.00;99277.44;4307773;33;20490;-76
2022/11/06 11:33:20;;;;;;;;;;;;;;;14.16;100.00;99268.81;4308473;33;20041;-76
2022/11/06 11:35:48;;;;;;;8.80;4.65;;;;;;;13.55;100.00;99276.75;4309981;33;19942;-76
2022/11/06 11:38:18;;;;;;;13.02;5.72;;;;;;;12.68;100.00;99264.25;4310551;33;20045;-76
2022/11/06 11:40:44;;;;;;;16.48;5.97;;;;;;;13.05;100.00;99263.44;4310783;33;20033;-77
2022/11/06 11:43:21;;;;;;;11.93;5.57;;;;;;;12.13;100.00;99230.28;4311767;33;20071;-77
2022/11/06 11:46:08;;;;;;;12.45;6.30;;;;;;;11.46;100.00;99245.66;4311095;33;20037;-77
2022/11/06 11:48:54;;;;;;;15.43;7.45;;;;;;;12.15;100.00;99257.81;4323304;33;20325;-76
2022/11/06 11:51:32;;;;;;;7.32;3.90;;;;;;;12.25;100.00;99260.59;4340925;33;20058;-76